sensor_id;sensor_type;location;lat;lon;timestamp;pressure;altitude;pressure_sealevel;temperature;humidity
66627;BME280;53498;50.422;14.912;2023-05-14T03:52:46;99288.50;;;11.89;87.05
66627;BME280;53498;50.422;14.912;2023-05-14T03:55:12;99288.50;;;11.86;87.21
66627;BME280;53498;50.422;14.912;2023-05-14T03:57:39;99289.34;;;11.86;87.63
66627;BME280;53498;50.422;14.912;2023-05-14T04:00:05;99288.50;;;11.89;87.51
66627;BME280;53498;50.422;14.912;2023-05-14T04:02:31;99292.78;;;11.84;88.00
66627;BME280;53498;50.422;14.912;2023-05-14T04:04:57;99291.97;;;11.88;87.96
66627;BME280;53498;50.422;14.912;2023-05-14T04:07:22;99285.84;;;11.79;89.00
66627;BME280;53498;50.422;14.912;2023-05-14T04:09:48;99287.63;;;11.91;88.20
66627;BME280;53498;50.422;14.912;2023-05-14T04:12:13;99282.38;;;11.77;88.71
66627;BME280;53498;50.422;14.912;2023-05-14T04:14:39;99273.72;;;11.75;88.93
66627;BME280;53498;50.422;14.912;2023-05-14T04:17:04;99271.94;;;11.77;89.09
66627;BME280;53498;50.422;14.912;2023-05-14T04:19:30;99270.22;;;11.79;88.65
66627;BME280;53498;50.422;14.912;2023-05-14T04:21:55;99277.16;;;11.80;88.73
66627;BME280;53498;50.422;14.912;2023-05-14T04:24:21;99269.34;;;11.82;88.58
66627;BME280;53498;50.422;14.912;2023-05-14T04:26:46;99273.72;;;11.85;88.56
66627;BME280;53498;50.422;14.912;2023-05-14T04:29:12;99280.66;;;11.92;88.34
66627;BME280;53498;50.422;14.912;2023-05-14T04:31:37;99278.88;;;11.97;87.71
66627;BME280;53498;50.422;14.912;2023-05-14T04:34:04;99284.13;;;11.86;88.53
66627;BME280;53498;50.422;14.912;2023-05-14T04:36:29;99278.88;;;11.97;88.78
66627;BME280;53498;50.422;14.912;2023-05-14T04:38:55;99278.00;;;12.02;88.20
66627;BME280;53498;50.422;14.912;2023-05-14T04:41:21;99274.56;;;12.07;87.49
66627;BME280;53498;50.422;14.912;2023-05-14T04:43:48;99270.22;;;11.92;89.14
66627;BME280;53498;50.422;14.912;2023-05-14T04:46:14;99273.69;;;11.94;88.83
66627;BME280;53498;50.422;14.912;2023-05-14T04:48:39;99271.13;;;11.88;88.65
66627;BME280;53498;50.422;14.912;2023-05-14T04:51:06;99268.47;;;11.94;89.38
66627;BME280;53498;50.422;14.912;2023-05-14T04:53:31;99260.66;;;12.01;88.45
66627;BME280;53498;50.422;14.912;2023-05-14T04:55:57;99267.56;;;12.06;87.86
66627;BME280;53498;50.422;14.912;2023-05-14T04:58:22;99264.97;;;12.07;87.53
66627;BME280;53498;50.422;14.912;2023-05-14T05:00:48;99271.94;;;11.96;88.64
66627;BME280;53498;50.422;14.912;2023-05-14T05:03:14;99271.97;;;11.87;89.31
66627;BME280;53498;50.422;14.912;2023-05-14T05:05:40;99274.56;;;12.00;88.21
66627;BME280;53498;50.422;14.912;2023-05-14T05:08:05;99268.47;;;11.97;88.59
66627;BME280;53498;50.422;14.912;2023-05-14T05:10:31;99261.50;;;12.05;88.67
66627;BME280;53498;50.422;14.912;2023-05-14T05:12:56;99263.22;;;12.03;89.24
66627;BME280;53498;50.422;14.912;2023-05-14T05:15:22;99267.59;;;11.96;89.35
66627;BME280;53498;50.422;14.912;2023-05-14T05:17:48;99265.00;;;12.04;88.90
66627;BME280;53498;50.422;14.912;2023-05-14T05:20:13;99260.59;;;12.12;88.70
66627;BME280;53498;50.422;14.912;2023-05-14T05:22:39;99255.41;;;12.14;88.86
66627;BME280;53498;50.422;14.912;2023-05-14T05:25:04;99251.94;;;12.02;89.34
66627;BME280;53498;50.422;14.912;2023-05-14T05:27:31;99251.94;;;12.07;88.74
66627;BME280;53498;50.422;14.912;2023-05-14T05:29:58;99247.59;;;12.04;88.93
66627;BME280;53498;50.422;14.912;2023-05-14T05:32:23;99238.91;;;12.06;88.72
66627;BME280;53498;50.422;14.912;2023-05-14T05:34:49;99243.19;;;12.23;88.48
66627;BME280;53498;50.422;14.912;2023-05-14T05:37:16;99241.44;;;12.32;87.55
66627;BME280;53498;50.422;14.912;2023-05-14T05:39:41;99237.09;;;12.24;87.73
66627;BME280;53498;50.422;14.912;2023-05-14T05:42:07;99241.47;;;12.18;88.12
66627;BME280;53498;50.422;14.912;2023-05-14T05:44:33;99242.25;;;12.37;87.06
66627;BME280;53498;50.422;14.912;2023-05-14T05:46:58;99243.94;;;12.44;86.53
66627;BME280;53498;50.422;14.912;2023-05-14T05:49:24;99246.53;;;12.53;86.51
66627;BME280;53498;50.422;14.912;2023-05-14T05:51:50;99243.97;;;12.38;87.18
66627;BME280;53498;50.422;14.912;2023-05-14T05:54:15;99240.59;;;12.17;87.83
66627;BME280;53498;50.422;14.912;2023-05-14T05:56:41;99249.16;;;12.44;87.31
66627;BME280;53498;50.422;14.912;2023-05-14T05:59:07;99243.06;;;12.46;87.22
66627;BME280;53498;50.422;14.912;2023-05-14T06:01:32;99252.59;;;12.58;86.54
66627;BME280;53498;50.422;14.912;2023-05-14T06:03:58;99246.50;;;12.59;86.91
66627;BME280;53498;50.422;14.912;2023-05-14T06:06:23;99250.78;;;12.68;86.31
66627;BME280;53498;50.422;14.912;2023-05-14T06:08:49;99248.09;;;12.83;85.27
66627;BME280;53498;50.422;14.912;2023-05-14T06:11:15;99256.69;;;13.01;84.26
66627;BME280;53498;50.422;14.912;2023-05-14T06:13:41;99255.81;;;13.00;84.28
66627;BME280;53498;50.422;14.912;2023-05-14T06:16:06;99248.91;;;12.93;85.00
66627;BME280;53498;50.422;14.912;2023-05-14T06:18:32;99248.03;;;12.92;85.25
66627;BME280;53498;50.422;14.912;2023-05-14T06:20:58;99245.38;;;12.97;83.29
66627;BME280;53498;50.422;14.912;2023-05-14T06:23:24;99241.84;;;13.10;82.71
66627;BME280;53498;50.422;14.912;2023-05-14T06:25:51;99242.63;;;13.26;81.99
66627;BME280;53498;50.422;14.912;2023-05-14T06:28:16;99241.72;;;13.29;81.92
66627;BME280;53498;50.422;14.912;2023-05-14T06:30:42;99242.50;;;13.41;81.81
66627;BME280;53498;50.422;14.912;2023-05-14T06:33:07;99241.72;;;13.29;82.38
66627;BME280;53498;50.422;14.912;2023-05-14T06:35:33;99244.22;;;13.42;82.03
66627;BME280;53498;50.422;14.912;2023-05-14T06:37:59;99236.13;;;13.69;80.98
66627;BME280;53498;50.422;14.912;2023-05-14T06:40:25;99242.31;;;13.57;79.77
66627;BME280;53498;50.422;14.912;2023-05-14T06:42:50;99245.06;;;13.43;80.70
66627;BME280;53498;50.422;14.912;2023-05-14T06:45:16;99245.06;;;13.43;81.97
66627;BME280;53498;50.422;14.912;2023-05-14T06:47:41;99243.91;;;13.76;80.49
66627;BME280;53498;50.422;14.912;2023-05-14T06:50:07;99239.28;;;14.00;78.84
66627;BME280;53498;50.422;14.912;2023-05-14T06:52:33;99247.38;;;13.75;78.48
66627;BME280;53498;50.422;14.912;2023-05-14T06:54:59;99248.19;;;13.83;79.34
66627;BME280;53498;50.422;14.912;2023-05-14T06:57:24;99249.84;;;13.92;78.64
66627;BME280;53498;50.422;14.912;2023-05-14T06:59:50;99257.78;;;13.83;78.73
66627;BME280;53498;50.422;14.912;2023-05-14T07:02:16;99255.91;;;13.96;78.18
66627;BME280;53498;50.422;14.912;2023-05-14T07:04:41;99251.31;;;14.13;78.42
66627;BME280;53498;50.422;14.912;2023-05-14T07:07:07;99250.41;;;14.20;76.70
66627;BME280;53498;50.422;14.912;2023-05-14T07:09:34;99245.75;;;14.41;76.25
66627;BME280;53498;50.422;14.912;2023-05-14T07:12:00;99252.75;;;14.40;77.95
66627;BME280;53498;50.422;14.912;2023-05-14T07:14:26;99251.91;;;14.38;74.98
66627;BME280;53498;50.422;14.912;2023-05-14T07:16:51;99246.50;;;14.53;72.69
66627;BME280;53498;50.422;14.912;2023-05-14T07:19:17;99250.91;;;14.51;72.52
66627;BME280;53498;50.422;14.912;2023-05-14T07:21:42;99249.13;;;14.50;72.67
66627;BME280;53498;50.422;14.912;2023-05-14T07:24:08;99247.81;;;14.87;72.32
66627;BME280;53498;50.422;14.912;2023-05-14T07:26:33;99245.22;;;14.84;71.36
66627;BME280;53498;50.422;14.912;2023-05-14T07:28:59;99236.50;;;14.81;72.45
66627;BME280;53498;50.422;14.912;2023-05-14T07:31:25;99226.84;;;14.19;72.50
66627;BME280;53498;50.422;14.912;2023-05-14T07:33:50;99222.09;;;14.50;72.83
66627;BME280;53498;50.422;14.912;2023-05-14T07:36:16;99232.03;;;14.90;71.76
66627;BME280;53498;50.422;14.912;2023-05-14T07:38:41;99230.75;;;15.17;69.85
66627;BME280;53498;50.422;14.912;2023-05-14T07:41:07;99224.22;;;15.41;68.78
66627;BME280;53498;50.422;14.912;2023-05-14T07:43:33;99221.22;;;15.64;68.46
66627;BME280;53498;50.422;14.912;2023-05-14T07:45:58;99219.03;;;14.82;70.97
66627;BME280;53498;50.422;14.912;2023-05-14T07:48:24;99214.75;;;15.32;69.44
66627;BME280;53498;50.422;14.912;2023-05-14T07:50:49;99218.06;;;15.45;68.14
66627;BME280;53498;50.422;14.912;2023-05-14T07:53:16;99216.53;;;15.32;68.48
66627;BME280;53498;50.422;14.912;2023-05-14T07:55:43;99222.03;;;15.66;68.55
66627;BME280;53498;50.422;14.912;2023-05-14T07:58:09;99220.25;;;15.71;67.76
66627;BME280;53498;50.422;14.912;2023-05-14T08:00:35;99209.31;;;15.94;66.73
66627;BME280;53498;50.422;14.912;2023-05-14T08:03:00;99209.19;;;15.50;68.38
66627;BME280;53498;50.422;14.912;2023-05-14T08:05:26;99212.97;;;15.36;68.49
66627;BME280;53498;50.422;14.912;2023-05-14T08:07:52;99204.38;;;15.27;68.23
66627;BME280;53498;50.422;14.912;2023-05-14T08:10:17;99200.94;;;15.22;69.14
66627;BME280;53498;50.422;14.912;2023-05-14T08:12:43;99201.59;;;15.86;66.27
66627;BME280;53498;50.422;14.912;2023-05-14T08:15:08;99196.66;;;16.14;66.28
66627;BME280;53498;50.422;14.912;2023-05-14T08:17:34;99193.25;;;15.64;67.54
66627;BME280;53498;50.422;14.912;2023-05-14T08:20:00;99192.94;;;15.81;67.66
66627;BME280;53498;50.422;14.912;2023-05-14T08:22:26;99190.03;;;15.95;66.44
66627;BME280;53498;50.422;14.912;2023-05-14T08:24:52;99187.16;;;16.09;66.16
66627;BME280;53498;50.422;14.912;2023-05-14T08:27:17;99185.03;;;16.26;64.61
66627;BME280;53498;50.422;14.912;2023-05-14T08:29:43;99185.03;;;16.26;65.67
66627;BME280;53498;50.422;14.912;2023-05-14T08:32:08;99184.28;;;16.21;64.97
66627;BME280;53498;50.422;14.912;2023-05-14T08:34:34;99181.53;;;15.84;66.59
66627;BME280;53498;50.422;14.912;2023-05-14T08:37:00;99174.03;;;16.07;67.52
66627;BME280;53498;50.422;14.912;2023-05-14T08:39:26;99177.69;;;16.02;66.15
66627;BME280;53498;50.422;14.912;2023-05-14T08:41:51;99179.09;;;16.16;65.66
66627;BME280;53498;50.422;14.912;2023-05-14T08:44:18;99168.41;;;16.26;64.24
66627;BME280;53498;50.422;14.912;2023-05-14T08:46:52;99169.41;;;16.20;66.61
66627;BME280;53498;50.422;14.912;2023-05-14T08:49:32;99163.09;;;16.30;64.56
66627;BME280;53498;50.422;14.912;2023-05-14T08:52:02;99156.22;;;16.23;65.04
66627;BME280;53498;50.422;14.912;2023-05-14T08:54:28;99163.16;;;16.26;63.66
66627;BME280;53498;50.422;14.912;2023-05-14T08:56:57;99159.00;;;16.15;63.69
66627;BME280;53498;50.422;14.912;2023-05-14T08:59:23;99155.13;;;15.93;64.54
66627;BME280;53498;50.422;14.912;2023-05-14T09:01:52;99159.25;;;16.05;64.96
66627;BME280;53498;50.422;14.912;2023-05-14T09:04:22;99154.63;;;16.17;63.90
66627;BME280;53498;50.422;14.912;2023-05-14T09:06:49;99153.47;;;16.29;63.33
66627;BME280;53498;50.422;14.912;2023-05-14T09:09:15;99145.09;;;16.12;63.57
66627;BME280;53498;50.422;14.912;2023-05-14T09:11:44;99148.25;;;16.28;63.15
66627;BME280;53498;50.422;14.912;2023-05-14T09:14:10;99139.19;;;16.01;63.57
66627;BME280;53498;50.422;14.912;2023-05-14T09:16:37;99145.59;;;15.87;63.73
66627;BME280;53498;50.422;14.912;2023-05-14T09:19:03;99138.03;;;16.15;62.80
66627;BME280;53498;50.422;14.912;2023-05-14T09:21:29;99131.78;;;16.19;62.55
66627;BME280;53498;50.422;14.912;2023-05-14T09:23:56;99131.75;;;16.60;63.25
66627;BME280;53498;50.422;14.912;2023-05-14T09:26:23;99133.91;;;16.81;60.13
66627;BME280;53498;50.422;14.912;2023-05-14T09:28:53;99126.66;;;16.91;60.20
66627;BME280;53498;50.422;14.912;2023-05-14T09:31:19;99119.16;;;16.76;59.01
66627;BME280;53498;50.422;14.912;2023-05-14T09:33:51;99112.69;;;17.23;59.42
66627;BME280;53498;50.422;14.912;2023-05-14T09:36:18;99112.72;;;17.54;58.53
66627;BME280;53498;50.422;14.912;2023-05-14T09:38:44;99105.69;;;17.88;56.37
66627;BME280;53498;50.422;14.912;2023-05-14T09:41:10;99107.38;;;17.59;55.16
66627;BME280;53498;50.422;14.912;2023-05-14T09:43:35;99102.69;;;17.05;57.40
66627;BME280;53498;50.422;14.912;2023-05-14T09:46:01;99106.13;;;16.34;59.59
66627;BME280;53498;50.422;14.912;2023-05-14T09:48:27;99103.50;;;16.71;59.32
66627;BME280;53498;50.422;14.912;2023-05-14T09:50:53;99098.19;;;16.37;60.03
66627;BME280;53498;50.422;14.912;2023-05-14T09:53:19;99091.44;;;16.25;61.06
66627;BME280;53498;50.422;14.912;2023-05-14T09:55:45;99093.38;;;16.92;60.41
66627;BME280;53498;50.422;14.912;2023-05-14T09:58:11;99088.72;;;17.03;58.69
66627;BME280;53498;50.422;14.912;2023-05-14T10:00:43;99098.16;;;16.76;58.70
66627;BME280;53498;50.422;14.912;2023-05-14T10:03:12;99082.53;;;17.05;57.39
66627;BME280;53498;50.422;14.912;2023-05-14T10:05:39;99080.34;;;17.21;56.80
66627;BME280;53498;50.422;14.912;2023-05-14T10:08:26;99075.03;;;17.23;58.32
66627;BME280;53498;50.422;14.912;2023-05-14T10:10:57;99078.63;;;17.51;55.14
66627;BME280;53498;50.422;14.912;2023-05-14T10:13:29;99079.97;;;17.66;54.86
66627;BME280;53498;50.422;14.912;2023-05-14T10:18:26;99078.13;;;17.06;56.63
66627;BME280;53498;50.422;14.912;2023-05-14T10:21:14;99074.75;;;17.33;56.41
66627;BME280;53498;50.422;14.912;2023-05-14T10:23:41;99068.59;;;16.66;57.26
66627;BME280;53498;50.422;14.912;2023-05-14T10:26:08;99058.19;;;16.97;56.30
66627;BME280;53498;50.422;14.912;2023-05-14T10:28:34;99058.06;;;17.34;55.93
66627;BME280;53498;50.422;14.912;2023-05-14T10:31:01;99066.97;;;17.62;55.11
66627;BME280;53498;50.422;14.912;2023-05-14T10:33:26;99056.38;;;17.32;54.22
66627;BME280;53498;50.422;14.912;2023-05-14T10:36:08;99052.84;;;17.64;53.69
66627;BME280;53498;50.422;14.912;2023-05-14T10:38:35;99043.22;;;17.94;53.80
66627;BME280;53498;50.422;14.912;2023-05-14T10:41:03;99045.22;;;18.14;52.95
66627;BME280;53498;50.422;14.912;2023-05-14T10:43:30;99038.44;;;18.07;50.67
66627;BME280;53498;50.422;14.912;2023-05-14T10:45:57;99049.69;;;18.12;52.40
66627;BME280;53498;50.422;14.912;2023-05-14T10:48:24;99041.09;;;18.62;52.24
66627;BME280;53498;50.422;14.912;2023-05-14T10:50:50;99029.84;;;18.83;50.66
66627;BME280;53498;50.422;14.912;2023-05-14T10:53:16;99039.78;;;18.20;52.32
66627;BME280;53498;50.422;14.912;2023-05-14T10:55:43;99036.34;;;17.90;53.23
66627;BME280;53498;50.422;14.912;2023-05-14T10:58:09;99034.00;;;17.48;53.64
66627;BME280;53498;50.422;14.912;2023-05-14T11:00:36;99039.31;;;17.76;52.89
66627;BME280;53498;50.422;14.912;2023-05-14T11:03:04;99034.56;;;17.91;52.21
66627;BME280;53498;50.422;14.912;2023-05-14T11:05:30;99032.72;;;17.63;52.61
66627;BME280;53498;50.422;14.912;2023-05-14T11:07:56;99028.09;;;17.71;54.84
66627;BME280;53498;50.422;14.912;2023-05-14T11:10:22;99019.59;;;17.93;53.44
66627;BME280;53498;50.422;14.912;2023-05-14T11:12:54;99021.34;;;17.92;53.22
66627;BME280;53498;50.422;14.912;2023-05-14T11:15:24;99018.63;;;17.64;54.83
66627;BME280;53498;50.422;14.912;2023-05-14T11:17:51;99014.19;;;17.37;53.67
66627;BME280;53498;50.422;14.912;2023-05-14T11:20:18;99021.06;;;17.72;53.07
66627;BME280;53498;50.422;14.912;2023-05-14T11:22:45;99025.16;;;17.51;53.25
66627;BME280;53498;50.422;14.912;2023-05-14T11:25:12;99016.16;;;17.30;53.88
66627;BME280;53498;50.422;14.912;2023-05-14T11:27:40;99008.22;;;17.61;53.02
66627;BME280;53498;50.422;14.912;2023-05-14T11:30:17;99010.50;;;17.42;53.55
66627;BME280;53498;50.422;14.912;2023-05-14T11:32:44;99007.84;;;17.44;52.11
66627;BME280;53498;50.422;14.912;2023-05-14T11:35:10;99006.94;;;17.45;51.99
66627;BME280;53498;50.422;14.912;2023-05-14T11:37:36;99012.09;;;17.79;51.88
66627;BME280;53498;50.422;14.912;2023-05-14T11:40:07;99007.41;;;17.89;51.80
66627;BME280;53498;50.422;14.912;2023-05-14T11:42:35;99006.13;;;17.72;51.69
66627;BME280;53498;50.422;14.912;2023-05-14T11:45:01;98999.50;;;17.59;52.11
66627;BME280;53498;50.422;14.912;2023-05-14T11:47:28;99008.63;;;17.78;52.13
66627;BME280;53498;50.422;14.912;2023-05-14T11:49:53;99004.78;;;17.89;52.88
66627;BME280;53498;50.422;14.912;2023-05-14T11:52:19;99005.97;;;17.78;52.10
66627;BME280;53498;50.422;14.912;2023-05-14T11:54:46;99001.47;;;17.82;52.14
66627;BME280;53498;50.422;14.912;2023-05-14T11:57:18;99002.16;;;17.89;51.09
66627;BME280;53498;50.422;14.912;2023-05-14T11:59:44;98998.81;;;17.84;51.94
66627;BME280;53498;50.422;14.912;2023-05-14T12:02:12;99002.25;;;17.86;52.34
66627;BME280;53498;50.422;14.912;2023-05-14T12:04:38;99002.06;;;17.92;52.41
66627;BME280;53498;50.422;14.912;2023-05-14T12:07:12;98996.50;;;18.01;52.61
66627;BME280;53498;50.422;14.912;2023-05-14T12:09:48;98991.72;;;18.14;53.34
66627;BME280;53498;50.422;14.912;2023-05-14T12:12:16;98990.00;;;17.85;53.86
66627;BME280;53498;50.422;14.912;2023-05-14T12:14:42;98992.03;;;17.75;55.13
66627;BME280;53498;50.422;14.912;2023-05-14T12:17:19;98985.00;;;17.75;54.48
66627;BME280;53498;50.422;14.912;2023-05-14T12:19:48;98990.00;;;17.55;55.03
66627;BME280;53498;50.422;14.912;2023-05-14T12:22:16;98983.75;;;17.59;54.63
66627;BME280;53498;50.422;14.912;2023-05-14T12:24:51;98987.28;;;17.88;54.39
66627;BME280;53498;50.422;14.912;2023-05-14T12:27:21;98982.94;;;17.87;54.41
66627;BME280;53498;50.422;14.912;2023-05-14T12:29:47;98980.91;;;17.95;54.69
66627;BME280;53498;50.422;14.912;2023-05-14T12:32:13;98978.34;;;17.93;52.34
66627;BME280;53498;50.422;14.912;2023-05-14T12:34:39;98984.66;;;17.58;52.78
66627;BME280;53498;50.422;14.912;2023-05-14T12:37:07;98972.44;;;17.55;53.22
66627;BME280;53498;50.422;14.912;2023-05-14T12:39:33;98965.22;;;17.62;52.94
66627;BME280;53498;50.422;14.912;2023-05-14T12:41:59;98963.84;;;17.80;53.35
66627;BME280;53498;50.422;14.912;2023-05-14T12:44:24;98965.28;;;17.90;52.00
66627;BME280;53498;50.422;14.912;2023-05-14T12:46:50;98954.66;;;17.93;51.78
66627;BME280;53498;50.422;14.912;2023-05-14T12:49:16;98957.66;;;18.09;52.48
66627;BME280;53498;50.422;14.912;2023-05-14T12:51:41;98949.03;;;18.04;52.18
66627;BME280;53498;50.422;14.912;2023-05-14T12:54:07;98940.94;;;18.37;51.57
66627;BME280;53498;50.422;14.912;2023-05-14T12:56:37;98939.94;;;18.41;50.66
66627;BME280;53498;50.422;14.912;2023-05-14T12:59:03;98941.09;;;18.06;51.61
66627;BME280;53498;50.422;14.912;2023-05-14T13:01:28;98930.88;;;17.96;51.88
66627;BME280;53498;50.422;14.912;2023-05-14T13:03:54;98927.16;;;18.29;51.45
66627;BME280;53498;50.422;14.912;2023-05-14T13:06:23;98939.09;;;18.65;50.20
66627;BME280;53498;50.422;14.912;2023-05-14T13:08:49;98935.09;;;18.54;49.61
66627;BME280;53498;50.422;14.912;2023-05-14T13:11:14;98929.06;;;18.25;50.20
66627;BME280;53498;50.422;14.912;2023-05-14T13:13:40;98927.56;;;18.43;50.13
66627;BME280;53498;50.422;14.912;2023-05-14T13:16:06;98927.00;;;18.33;50.07
66627;BME280;53498;50.422;14.912;2023-05-14T13:18:32;98926.66;;;18.44;49.75
66627;BME280;53498;50.422;14.912;2023-05-14T13:20:57;98931.72;;;17.97;50.63
66627;BME280;53498;50.422;14.912;2023-05-14T13:23:23;98934.38;;;17.95;51.97
66627;BME280;53498;50.422;14.912;2023-05-14T13:25:48;98911.78;;;18.43;51.67
66627;BME280;53498;50.422;14.912;2023-05-14T13:28:14;98919.50;;;18.74;50.90
66627;BME280;53498;50.422;14.912;2023-05-14T13:30:39;98919.44;;;18.76;49.02
66627;BME280;53498;50.422;14.912;2023-05-14T13:33:05;98914.03;;;18.54;47.86
66627;BME280;53498;50.422;14.912;2023-05-14T13:35:30;98914.22;;;18.47;49.19
66627;BME280;53498;50.422;14.912;2023-05-14T13:37:56;98909.97;;;18.18;50.63
66627;BME280;53498;50.422;14.912;2023-05-14T13:40:21;98908.53;;;18.35;50.41
66627;BME280;53498;50.422;14.912;2023-05-14T13:42:47;98916.03;;;18.20;49.09
66627;BME280;53498;50.422;14.912;2023-05-14T13:45:12;98905.91;;;18.08;49.24
66627;BME280;53498;50.422;14.912;2023-05-14T13:47:38;98909.47;;;17.79;51.37
66627;BME280;53498;50.422;14.912;2023-05-14T13:50:04;98910.84;;;17.63;52.18
66627;BME280;53498;50.422;14.912;2023-05-14T13:52:30;98908.50;;;17.83;52.46
66627;BME280;53498;50.422;14.912;2023-05-14T13:54:55;98907.09;;;17.70;53.26
66627;BME280;53498;50.422;14.912;2023-05-14T13:57:21;98903.22;;;17.55;53.57
66627;BME280;53498;50.422;14.912;2023-05-14T13:59:47;98908.47;;;17.55;53.11
66627;BME280;53498;50.422;14.912;2023-05-14T14:02:13;98906.25;;;17.41;53.22
66627;BME280;53498;50.422;14.912;2023-05-14T14:04:39;98898.69;;;17.30;54.08
66627;BME280;53498;50.422;14.912;2023-05-14T14:07:04;98886.06;;;17.42;53.38
66627;BME280;53498;50.422;14.912;2023-05-14T14:09:30;98898.19;;;17.18;54.02
66627;BME280;53498;50.422;14.912;2023-05-14T14:12:02;98894.41;;;17.26;54.26
66627;BME280;53498;50.422;14.912;2023-05-14T14:14:28;98887.59;;;17.21;54.20
66627;BME280;53498;50.422;14.912;2023-05-14T14:16:53;98893.72;;;17.21;54.81
66627;BME280;53498;50.422;14.912;2023-05-14T14:19:19;98891.78;;;16.97;55.29
66627;BME280;53498;50.422;14.912;2023-05-14T14:21:47;98885.31;;;17.08;55.13
66627;BME280;53498;50.422;14.912;2023-05-14T14:24:12;98899.59;;;17.00;55.52
66627;BME280;53498;50.422;14.912;2023-05-14T14:26:38;98891.31;;;16.82;56.06
66627;BME280;53498;50.422;14.912;2023-05-14T14:29:04;98889.69;;;16.78;56.24
66627;BME280;53498;50.422;14.912;2023-05-14T14:31:29;98895.91;;;16.74;56.63
66627;BME280;53498;50.422;14.912;2023-05-14T14:33:55;98883.09;;;16.62;57.53
66627;BME280;53498;50.422;14.912;2023-05-14T14:36:20;98883.94;;;16.64;58.45
66627;BME280;53498;50.422;14.912;2023-05-14T14:38:46;98887.41;;;16.64;63.16
66627;BME280;53498;50.422;14.912;2023-05-14T14:41:11;98876.13;;;16.61;64.68
66627;BME280;53498;50.422;14.912;2023-05-14T14:43:38;98881.97;;;16.39;61.79
66627;BME280;53498;50.422;14.912;2023-05-14T14:46:05;98885.47;;;16.38;62.99
66627;BME280;53498;50.422;14.912;2023-05-14T14:48:32;98888.25;;;16.32;62.01
66627;BME280;53498;50.422;14.912;2023-05-14T14:51:05;98885.56;;;16.35;61.31
66627;BME280;53498;50.422;14.912;2023-05-14T14:53:31;98880.53;;;16.26;61.56
66627;BME280;53498;50.422;14.912;2023-05-14T14:55:58;98891.94;;;16.25;61.91
66627;BME280;53498;50.422;14.912;2023-05-14T14:58:25;98892.66;;;16.32;61.81
66627;BME280;53498;50.422;14.912;2023-05-14T15:00:54;98889.53;;;16.17;61.56
66627;BME280;53498;50.422;14.912;2023-05-14T15:03:21;98887.69;;;16.21;62.10
66627;BME280;53498;50.422;14.912;2023-05-14T15:05:47;98889.88;;;16.04;62.65
66627;BME280;53498;50.422;14.912;2023-05-14T15:08:13;98882.84;;;16.06;62.81
66627;BME280;53498;50.422;14.912;2023-05-14T15:10:39;98886.38;;;16.05;64.65
66627;BME280;53498;50.422;14.912;2023-05-14T15:13:06;98908.28;;;15.63;70.66
66627;BME280;53498;50.422;14.912;2023-05-14T15:15:33;98909.34;;;15.16;75.72
66627;BME280;53498;50.422;14.912;2023-05-14T15:18:03;98912.59;;;14.85;79.08
66627;BME280;53498;50.422;14.912;2023-05-14T15:20:29;98906.94;;;14.62;81.03
66627;BME280;53498;50.422;14.912;2023-05-14T15:22:55;98917.66;;;14.46;85.62
66627;BME280;53498;50.422;14.912;2023-05-14T15:25:22;98914.59;;;14.23;87.39
66627;BME280;53498;50.422;14.912;2023-05-14T15:27:48;98920.03;;;14.10;90.71
66627;BME280;53498;50.422;14.912;2023-05-14T15:30:16;98925.41;;;14.01;92.30
66627;BME280;53498;50.422;14.912;2023-05-14T15:32:43;98928.13;;;13.94;94.17
66627;BME280;53498;50.422;14.912;2023-05-14T15:35:09;98926.91;;;13.60;94.91
66627;BME280;53498;50.422;14.912;2023-05-14T15:37:43;98926.84;;;13.65;94.21
66627;BME280;53498;50.422;14.912;2023-05-14T15:40:09;98921.56;;;13.68;98.03
66627;BME280;53498;50.422;14.912;2023-05-14T15:42:37;98911.06;;;13.73;96.03
66627;BME280;53498;50.422;14.912;2023-05-14T15:45:03;98912.81;;;13.69;95.36
66627;BME280;53498;50.422;14.912;2023-05-14T15:47:29;98916.25;;;13.74;95.53
66627;BME280;53498;50.422;14.912;2023-05-14T15:49:54;98915.41;;;13.72;94.22
66627;BME280;53498;50.422;14.912;2023-05-14T15:52:20;98914.50;;;13.75;95.05
66627;BME280;53498;50.422;14.912;2023-05-14T15:54:46;98917.78;;;13.89;96.22
66627;BME280;53498;50.422;14.912;2023-05-14T15:57:12;98921.91;;;14.02;96.01
66627;BME280;53498;50.422;14.912;2023-05-14T15:59:38;98925.56;;;13.91;95.84
66627;BME280;53498;50.422;14.912;2023-05-14T16:02:04;98916.78;;;13.96;97.14
66627;BME280;53498;50.422;14.912;2023-05-14T16:04:29;98915.97;;;13.91;94.80
66627;BME280;53498;50.422;14.912;2023-05-14T16:07:02;98926.69;;;13.76;96.10
66627;BME280;53498;50.422;14.912;2023-05-14T16:09:28;98915.44;;;13.71;98.65
66627;BME280;53498;50.422;14.912;2023-05-14T16:11:54;98924.13;;;13.73;99.24
66627;BME280;53498;50.422;14.912;2023-05-14T16:14:19;98915.44;;;13.71;98.35
66627;BME280;53498;50.422;14.912;2023-05-14T16:16:45;98916.47;;;13.60;97.98
66627;BME280;53498;50.422;14.912;2023-05-14T16:19:10;98921.66;;;13.63;98.56
66627;BME280;53498;50.422;14.912;2023-05-14T16:21:36;98917.91;;;13.78;99.50
66627;BME280;53498;50.422;14.912;2023-05-14T16:24:02;98930.38;;;13.61;97.22
66627;BME280;53498;50.422;14.912;2023-05-14T16:26:27;98926.06;;;13.58;98.20
66627;BME280;53498;50.422;14.912;2023-05-14T16:28:53;98918.34;;;13.49;98.55
66627;BME280;53498;50.422;14.912;2023-05-14T16:31:18;98926.19;;;13.51;98.06
66627;BME280;53498;50.422;14.912;2023-05-14T16:33:44;98932.25;;;13.53;97.07
66627;BME280;53498;50.422;14.912;2023-05-14T16:36:10;98924.25;;;13.63;98.04
66627;BME280;53498;50.422;14.912;2023-05-14T16:38:35;98931.28;;;13.57;97.21
66627;BME280;53498;50.422;14.912;2023-05-14T16:41:01;98923.31;;;13.66;95.11